Time,TemperatureF,DewpointF,PressureIn,WindDirection,WindDirectionDegrees,WindSpeedMPH,WindSpeedGustMPH,Humidity,HourlyPrecipIn,Conditions,Clouds,dailyrainin,SoftwareType,DateUTC
2013-09-27 00:01:00,45.0,43.9,30.04,East,90,0.0,0.0,96,0.00,,---,0.00,VWS V13.01,2013-09-27 04:01:00,
2013-09-27 00:02:00,45.0,44.2,30.04,East,90,0.0,0.0,97,0.00,,---,0.00,VWS V13.01,2013-09-27 04:02:00,
2013-09-27 00:04:00,45.0,44.2,30.04,East,90,0.0,0.0,97,0.00,,---,0.00,VWS V13.01,2013-09-27 04:04:00,
2013-09-27 00:06:00,45.0,44.2,30.04,East,90,0.0,0.0,97,0.00,,---,0.00,VWS V13.01,2013-09-27 04:06:00,
2013-09-27 00:11:00,45.2,44.4,30.05,East,90,0.0,0.0,97,0.00,,---,0.00,VWS V13.01,2013-09-27 04:11:00,
2013-09-27 00:16:00,45.2,44.4,30.05,East,90,0.0,0.0,97,0.00,,---,0.00,VWS V13.01,2013-09-27 04:16:00,
2013-09-27 00:21:00,45.4,44.6,30.04,East,90,0.0,0.0,97,0.00,,---,0.00,VWS V13.01,2013-09-27 04:21:00,
2013-09-27 00:27:00,45.5,44.7,30.04,East,90,0.0,0.0,97,0.00,,---,0.00,VWS V13.01,2013-09-27 04:27:00,
2013-09-27 00:32:00,45.8,45.0,30.05,East,90,0.0,0.0,97,0.00,,---,0.00,VWS V13.01,2013-09-27 04:32:00,
2013-09-27 00:37:00,46.0,45.2,30.04,East,90,0.0,0.0,97,0.00,,---,0.00,VWS V13.01,2013-09-27 04:37:00,
2013-09-27 00:42:00,46.3,45.8,30.04,East,90,0.0,0.0,98,0.00,,---,0.00,VWS V13.01,2013-09-27 04:42:00,
2013-09-27 00:47:00,46.5,46.0,30.05,East,90,0.0,0.0,98,0.00,,---,0.00,VWS V13.01,2013-09-27 04:47:00,
2013-09-27 00:52:00,46.7,46.2,30.04,East,90,0.0,0.0,98,0.00,,---,0.00,VWS V13.01,2013-09-27 04:52:00,
2013-09-27 00:57:00,46.8,46.3,30.05,East,90,0.0,0.0,98,0.00,,---,0.00,VWS V13.01,2013-09-27 04:57:00,
2013-09-27 01:02:00,46.9,46.4,30.05,East,90,0.0,0.0,98,0.00,,---,0.00,VWS V13.01,2013-09-27 05:02:00,
2013-09-27 01:07:00,46.9,46.4,30.05,East,90,0.0,0.0,98,0.00,,---,0.00,VWS V13.01,2013-09-27 05:07:00,
2013-09-27 01:12:00,46.7,46.2,30.05,East,90,0.0,0.0,98,0.00,,---,0.00,VWS V13.01,2013-09-27 05:12:00,
2013-09-27 01:17:00,46.6,46.1,30.05,East,90,0.0,0.0,98,0.00,,---,0.00,VWS V13.01,2013-09-27 05:17:00,
2013-09-27 01:22:00,46.5,46.0,30.05,East,90,0.0,0.0,98,0.00,,---,0.00,VWS V13.01,2013-09-27 05:22:00,
2013-09-27 01:28:00,46.2,45.4,30.05,East,90,0.0,1.0,97,0.00,,---,0.00,VWS V13.01,2013-09-27 05:28:00,
2013-09-27 01:33:00,46.2,45.7,30.05,East,90,0.0,0.0,98,0.00,,---,0.00,VWS V13.01,2013-09-27 05:33:00,
2013-09-27 01:38:00,46.2,45.7,30.05,East,90,0.0,0.0,98,0.00,,---,0.00,VWS V13.01,2013-09-27 05:38:00,
2013-09-27 01:43:00,46.3,45.8,30.05,East,90,0.0,0.0,98,0.00,,---,0.00,VWS V13.01,2013-09-27 05:43:00,
2013-09-27 01:48:00,46.1,45.6,30.06,East,90,0.0,0.0,98,0.00,,---,0.00,VWS V13.01,2013-09-27 05:48:00,
2013-09-27 01:53:00,46.0,45.5,30.05,East,90,0.0,0.0,98,0.00,,---,0.00,VWS V13.01,2013-09-27 05:53:00,
2013-09-27 01:58:00,46.0,45.5,30.05,East,90,0.0,0.0,98,0.00,,---,0.00,VWS V13.01,2013-09-27 05:58:00,
2013-09-27 02:03:00,46.2,45.7,30.05,East,90,0.0,0.0,98,0.00,,---,0.00,VWS V13.01,2013-09-27 06:03:00,
2013-09-27 02:08:00,46.3,45.8,30.06,East,90,0.0,0.0,98,0.00,,---,0.00,VWS V13.01,2013-09-27 06:08:00,
2013-09-27 02:13:00,46.4,45.9,30.05,East,90,0.0,0.0,98,0.00,,---,0.00,VWS V13.01,2013-09-27 06:13:00,
2013-09-27 02:18:00,46.4,45.9,30.05,East,90,0.0,0.0,98,0.00,,---,0.00,VWS V13.01,2013-09-27 06:18:00,
2013-09-27 02:23:00,46.3,45.8,30.05,East,90,0.0,0.0,98,0.00,,---,0.00,VWS V13.01,2013-09-27 06:23:00,
2013-09-27 02:29:00,46.3,45.8,30.06,East,90,0.0,0.0,98,0.00,,---,0.00,VWS V13.01,2013-09-27 06:29:00,
2013-09-27 02:34:00,46.1,45.6,30.06,East,90,0.0,0.0,98,0.00,,---,0.00,VWS V13.01,2013-09-27 06:34:00,
2013-09-27 02:39:00,46.0,45.5,30.05,East,90,0.0,0.0,98,0.00,,---,0.00,VWS V13.01,2013-09-27 06:39:00,
2013-09-27 02:44:00,45.9,45.4,30.05,East,90,0.0,0.0,98,0.00,,---,0.00,VWS V13.01,2013-09-27 06:44:00,
2013-09-27 02:49:00,45.8,45.3,30.06,East,90,0.0,0.0,98,0.00,,---,0.00,VWS V13.01,2013-09-27 06:49:00,
2013-09-27 02:54:00,45.9,45.4,30.06,East,90,0.0,0.0,98,0.00,,---,0.00,VWS V13.01,2013-09-27 06:54:00,
2013-09-27 02:59:00,46.0,45.5,30.06,East,90,0.0,0.0,98,0.00,,---,0.00,VWS V13.01,2013-09-27 06:59:00,
2013-09-27 03:04:00,45.9,45.4,30.05,East,90,0.0,0.0,98,0.00,,---,0.00,VWS V13.01,2013-09-27 07:04:00,
2013-09-27 03:09:00,45.9,45.4,30.06,East,90,0.0,0.0,98,0.00,,---,0.00,VWS V13.01,2013-09-27 07:09:00,
2013-09-27 03:14:00,46.0,45.5,30.06,East,90,0.0,0.0,98,0.00,,---,0.00,VWS V13.01,2013-09-27 07:14:00,
2013-09-27 03:19:00,46.0,45.5,30.06,East,90,0.0,0.0,98,0.00,,---,0.00,VWS V13.01,2013-09-27 07:19:00,
2013-09-27 03:24:00,46.0,45.5,30.05,East,90,0.0,0.0,98,0.00,,---,0.00,VWS V13.01,2013-09-27 07:24:00,
2013-09-27 03:29:00,46.0,45.5,30.05,East,90,0.0,0.0,98,0.00,,---,0.00,VWS V13.01,2013-09-27 07:29:00,
2013-09-27 03:34:00,46.0,45.5,30.05,East,90,0.0,0.0,98,0.00,,---,0.00,VWS V13.01,2013-09-27 07:34:00,
2013-09-27 03:40:00,46.0,45.5,30.05,East,90,0.0,0.0,98,0.00,,---,0.00,VWS V13.01,2013-09-27 07:40:00,
2013-09-27 03:45:00,46.0,45.5,30.06,East,90,0.0,0.0,98,0.00,,---,0.00,VWS V13.01,2013-09-27 07:45:00,
2013-09-27 03:50:00,45.8,45.3,30.06,East,90,0.0,0.0,98,0.00,,---,0.00,VWS V13.01,2013-09-27 07:50:00,
2013-09-27 03:55:00,45.8,45.3,30.05,East,90,0.0,0.0,98,0.00,,---,0.00,VWS V13.01,2013-09-27 07:55:00,
2013-09-27 04:00:00,45.8,45.3,30.05,East,90,0.0,0.0,98,0.00,,---,0.00,VWS V13.01,2013-09-27 08:00:00,
2013-09-27 04:05:00,45.7,45.2,30.06,East,90,0.0,0.0,98,0.00,,---,0.00,VWS V13.01,2013-09-27 08:05:00,
2013-09-27 04:10:00,45.6,45.1,30.06,East,90,0.0,0.0,98,0.01,,---,0.01,VWS V13.01,2013-09-27 08:10:00,
2013-09-27 04:15:00,45.6,45.1,30.06,East,90,0.0,0.0,98,0.01,,---,0.01,VWS V13.01,2013-09-27 08:15:00,
2013-09-27 04:21:00,45.5,45.0,30.06,East,90,0.0,0.0,98,0.01,,---,0.01,VWS V13.01,2013-09-27 08:21:00,
2013-09-27 04:26:00,45.4,44.9,30.06,East,90,0.0,0.0,98,0.01,,---,0.01,VWS V13.01,2013-09-27 08:26:00,
2013-09-27 04:31:00,45.3,44.8,30.07,East,90,0.0,0.0,98,0.01,,---,0.01,VWS V13.01,2013-09-27 08:31:00,
2013-09-27 04:36:00,45.2,44.7,30.07,East,90,0.0,0.0,98,0.01,,---,0.01,VWS V13.01,2013-09-27 08:36:00,
2013-09-27 04:41:00,45.2,44.7,30.07,East,90,0.0,0.0,98,0.01,,---,0.01,VWS V13.01,2013-09-27 08:41:00,
2013-09-27 04:46:00,45.3,44.8,30.07,East,90,0.0,0.0,98,0.01,,---,0.01,VWS V13.01,2013-09-27 08:46:00,
2013-09-27 04:51:00,45.4,44.9,30.07,East,90,0.0,0.0,98,0.01,,---,0.01,VWS V13.01,2013-09-27 08:51:00,
2013-09-27 04:56:00,45.3,44.8,30.07,East,90,0.0,0.0,98,0.01,,---,0.01,VWS V13.01,2013-09-27 08:56:00,
2013-09-27 05:01:00,45.3,44.8,30.07,East,90,0.0,0.0,98,0.01,,---,0.01,VWS V13.01,2013-09-27 09:01:00,
2013-09-27 05:06:00,45.1,44.6,30.08,East,90,0.0,0.0,98,0.01,,---,0.01,VWS V13.01,2013-09-27 09:06:00,
2013-09-27 05:11:00,45.2,44.7,30.08,East,90,0.0,0.0,98,0.01,,---,0.01,VWS V13.01,2013-09-27 09:11:00,
2013-09-27 05:16:00,45.2,44.7,30.08,East,90,0.0,0.0,98,0.01,,---,0.01,VWS V13.01,2013-09-27 09:16:00,
2013-09-27 05:21:00,45.2,44.7,30.08,East,90,0.0,0.0,98,0.01,,---,0.01,VWS V13.01,2013-09-27 09:21:00,
2013-09-27 05:26:00,45.1,44.6,30.08,East,90,0.0,0.0,98,0.01,,---,0.01,VWS V13.01,2013-09-27 09:26:00,
2013-09-27 05:31:00,45.1,44.6,30.08,East,90,0.0,0.0,98,0.00,,---,0.01,VWS V13.01,2013-09-27 09:31:00,
2013-09-27 05:36:00,45.1,44.6,30.08,East,90,0.0,0.0,98,0.00,,---,0.01,VWS V13.01,2013-09-27 09:36:00,
2013-09-27 05:41:00,45.0,44.5,30.08,East,90,0.0,0.0,98,0.00,,---,0.01,VWS V13.01,2013-09-27 09:41:00,
2013-09-27 05:46:00,45.1,44.6,30.08,East,90,0.0,0.0,98,0.00,,---,0.01,VWS V13.01,2013-09-27 09:46:00,
2013-09-27 05:51:00,45.0,44.7,30.08,East,90,0.0,0.0,99,0.00,,---,0.01,VWS V13.01,2013-09-27 09:51:00,
2013-09-27 05:57:00,44.9,44.6,30.09,East,90,0.0,1.0,99,0.00,,---,0.01,VWS V13.01,2013-09-27 09:57:00,
2013-09-27 06:02:00,44.9,44.4,30.09,East,90,0.0,0.0,98,0.00,,---,0.01,VWS V13.01,2013-09-27 10:02:00,
2013-09-27 06:07:00,44.8,44.3,30.09,East,90,0.0,0.0,98,0.00,,---,0.01,VWS V13.01,2013-09-27 10:07:00,
2013-09-27 06:12:00,44.8,44.3,30.09,East,90,0.0,0.0,98,0.00,,---,0.01,VWS V13.01,2013-09-27 10:12:00,
2013-09-27 06:17:00,44.7,44.2,30.09,East,90,0.0,0.0,98,0.00,,---,0.01,VWS V13.01,2013-09-27 10:17:00,
2013-09-27 06:22:00,44.7,44.2,30.09,East,90,0.0,0.0,98,0.00,,---,0.01,VWS V13.01,2013-09-27 10:22:00,
2013-09-27 06:27:00,44.6,44.1,30.09,East,90,0.0,0.0,98,0.00,,---,0.01,VWS V13.01,2013-09-27 10:27:00,
2013-09-27 06:32:00,44.5,44.2,30.09,East,90,0.0,0.0,99,0.00,,---,0.01,VWS V13.01,2013-09-27 10:32:00,
2013-09-27 06:37:00,44.3,44.0,30.10,East,90,0.0,0.0,99,0.00,,---,0.01,VWS V13.01,2013-09-27 10:37:00,
2013-09-27 06:42:00,44.2,43.7,30.10,East,90,0.0,0.0,98,0.00,,---,0.01,VWS V13.01,2013-09-27 10:42:00,
2013-09-27 06:47:00,44.1,43.6,30.10,East,90,0.0,0.0,98,0.00,,---,0.01,VWS V13.01,2013-09-27 10:47:00,
2013-09-27 06:52:00,44.0,43.5,30.10,East,90,0.0,0.0,98,0.00,,---,0.01,VWS V13.01,2013-09-27 10:52:00,
2013-09-27 06:57:00,44.1,43.6,30.11,East,90,0.0,0.0,98,0.00,,---,0.01,VWS V13.01,2013-09-27 10:57:00,
2013-09-27 07:02:00,44.1,43.6,30.11,East,90,0.0,1.0,98,0.00,,---,0.01,VWS V13.01,2013-09-27 11:02:00,
2013-09-27 07:07:00,44.0,43.5,30.11,East,90,0.0,1.0,98,0.00,,---,0.01,VWS V13.01,2013-09-27 11:07:00,
2013-09-27 07:12:00,44.1,43.6,30.12,East,90,0.0,1.0,98,0.00,,---,0.01,VWS V13.01,2013-09-27 11:12:00,
2013-09-27 07:17:00,44.0,43.7,30.12,East,90,0.0,1.0,99,0.00,,---,0.01,VWS V13.01,2013-09-27 11:17:00,
2013-09-27 07:22:00,43.8,43.5,30.12,East,90,0.0,1.0,99,0.00,,---,0.01,VWS V13.01,2013-09-27 11:22:00,
2013-09-27 07:28:00,43.8,43.5,30.12,East,90,0.0,1.0,99,0.00,,---,0.01,VWS V13.01,2013-09-27 11:28:00,
2013-09-27 07:33:00,43.7,43.4,30.11,East,90,0.0,0.0,99,0.00,,---,0.01,VWS V13.01,2013-09-27 11:33:00,
2013-09-27 07:38:00,43.7,43.2,30.11,East,90,0.0,0.0,98,0.00,,---,0.01,VWS V13.01,2013-09-27 11:38:00,
2013-09-27 07:43:00,43.7,43.4,30.12,East,90,0.0,1.0,99,0.00,,---,0.01,VWS V13.01,2013-09-27 11:43:00,
2013-09-27 07:48:00,43.8,43.5,30.12,East,90,0.0,1.0,99,0.00,,---,0.01,VWS V13.01,2013-09-27 11:48:00,
2013-09-27 07:53:00,43.8,43.5,30.13,East,90,0.0,1.0,99,0.00,,---,0.01,VWS V13.01,2013-09-27 11:53:00,
2013-09-27 07:58:00,43.9,43.6,30.13,East,90,0.0,1.0,99,0.00,,---,0.01,VWS V13.01,2013-09-27 11:58:00,
2013-09-27 08:03:00,43.9,43.6,30.13,East,90,0.0,0.0,99,0.00,,---,0.01,VWS V13.01,2013-09-27 12:03:00,
2013-09-27 08:08:00,44.0,43.7,30.13,East,90,0.0,0.0,99,0.00,,---,0.01,VWS V13.01,2013-09-27 12:08:00,
2013-09-27 08:13:00,44.1,43.8,30.13,East,90,0.0,0.0,99,0.00,,---,0.01,VWS V13.01,2013-09-27 12:13:00,
2013-09-27 08:18:00,44.3,44.0,30.13,East,90,0.0,0.0,99,0.00,,---,0.01,VWS V13.01,2013-09-27 12:18:00,
2013-09-27 08:24:00,44.2,43.9,30.13,East,90,0.0,0.0,99,0.00,,---,0.01,VWS V13.01,2013-09-27 12:24:00,
2013-09-27 08:29:00,44.0,43.7,30.14,East,90,0.0,0.0,99,0.00,,---,0.01,VWS V13.01,2013-09-27 12:29:00,
2013-09-27 08:34:00,44.0,43.7,30.14,East,90,0.0,0.0,99,0.00,,---,0.01,VWS V13.01,2013-09-27 12:34:00,
2013-09-27 08:39:00,44.0,43.7,30.14,East,90,0.0,0.0,99,0.00,,---,0.01,VWS V13.01,2013-09-27 12:39:00,
2013-09-27 08:44:00,44.0,43.7,30.14,East,90,0.0,0.0,99,0.00,,---,0.01,VWS V13.01,2013-09-27 12:44:00,
2013-09-27 08:49:00,44.2,43.9,30.14,East,90,0.0,0.0,99,0.00,,---,0.01,VWS V13.01,2013-09-27 12:49:00,
2013-09-27 08:54:00,44.4,44.1,30.14,East,90,0.0,0.0,99,0.00,,---,0.01,VWS V13.01,2013-09-27 12:54:00,
2013-09-27 08:59:00,44.4,44.1,30.14,East,90,0.0,0.0,99,0.00,,---,0.01,VWS V13.01,2013-09-27 12:59:00,
2013-09-27 09:04:00,44.5,44.2,30.14,East,90,0.0,0.0,99,0.00,,---,0.01,VWS V13.01,2013-09-27 13:04:00,
2013-09-27 09:09:00,44.9,44.6,30.14,East,90,0.0,0.0,99,0.00,,---,0.01,VWS V13.01,2013-09-27 13:09:00,
2013-09-27 09:14:00,45.1,44.8,30.14,East,90,0.0,0.0,99,0.00,,---,0.01,VWS V13.01,2013-09-27 13:14:00,
2013-09-27 09:19:00,45.7,45.4,30.15,East,90,0.0,0.0,99,0.00,,---,0.01,VWS V13.01,2013-09-27 13:19:00,
2013-09-27 09:24:00,46.1,45.8,30.15,East,90,0.0,0.0,99,0.00,,---,0.01,VWS V13.01,2013-09-27 13:24:00,
2013-09-27 09:29:00,46.3,46.0,30.15,East,90,0.0,0.0,99,0.00,,---,0.01,VWS V13.01,2013-09-27 13:29:00,
2013-09-27 09:34:00,46.6,46.3,30.15,East,90,0.0,1.0,99,0.00,,---,0.01,VWS V13.01,2013-09-27 13:34:00,
2013-09-27 09:39:00,46.9,46.6,30.15,East,90,0.0,1.0,99,0.00,,---,0.01,VWS V13.01,2013-09-27 13:39:00,
2013-09-27 09:44:00,47.4,47.1,30.15,East,90,0.0,1.0,99,0.00,,---,0.01,VWS V13.01,2013-09-27 13:44:00,
2013-09-27 09:50:00,48.0,47.7,30.14,East,90,0.0,1.0,99,0.00,,---,0.01,VWS V13.01,2013-09-27 13:50:00,
2013-09-27 09:55:00,48.7,48.4,30.14,East,90,0.0,1.0,99,0.00,,---,0.01,VWS V13.01,2013-09-27 13:55:00,
2013-09-27 10:00:00,49.7,49.4,30.14,East,90,0.0,1.0,99,0.00,,---,0.01,VWS V13.01,2013-09-27 14:00:00,
2013-09-27 10:05:00,50.2,49.9,30.14,East,90,0.0,0.0,99,0.00,,---,0.01,VWS V13.01,2013-09-27 14:05:00,
2013-09-27 10:10:00,49.9,49.6,30.14,East,90,0.0,1.0,99,0.00,,---,0.01,VWS V13.01,2013-09-27 14:10:00,
2013-09-27 10:15:00,50.2,49.9,30.14,East,90,0.0,1.0,99,0.00,,---,0.01,VWS V13.01,2013-09-27 14:15:00,
2013-09-27 10:20:00,50.8,50.5,30.14,East,90,0.0,1.0,99,0.00,,---,0.01,VWS V13.01,2013-09-27 14:20:00,
2013-09-27 10:25:00,51.2,50.9,30.14,East,90,0.0,1.0,99,0.00,,---,0.01,VWS V13.01,2013-09-27 14:25:00,
2013-09-27 10:30:00,51.8,51.5,30.14,East,90,0.0,0.0,99,0.00,,---,0.01,VWS V13.01,2013-09-27 14:30:00,
2013-09-27 10:35:00,52.9,52.9,30.14,East,90,0.0,0.0,100,0.00,,---,0.01,VWS V13.01,2013-09-27 14:35:00,
2013-09-27 10:40:00,53.8,53.5,30.14,East,90,0.0,0.0,99,0.00,,---,0.01,VWS V13.01,2013-09-27 14:40:00,
2013-09-27 10:45:00,54.8,54.8,30.14,East,90,0.0,0.0,100,0.00,,---,0.01,VWS V13.01,2013-09-27 14:45:00,
2013-09-27 10:50:00,55.6,55.6,30.14,East,90,0.0,0.0,100,0.00,,---,0.01,VWS V13.01,2013-09-27 14:50:00,
2013-09-27 10:55:00,56.3,56.3,30.13,East,90,0.0,1.0,100,0.00,,---,0.01,VWS V13.01,2013-09-27 14:55:00,
2013-09-27 11:00:00,57.5,57.5,30.13,East,90,0.0,0.0,100,0.00,,---,0.01,VWS V13.01,2013-09-27 15:00:00,
2013-09-27 11:05:00,57.8,57.8,30.13,East,90,0.0,0.0,100,0.00,,---,0.01,VWS V13.01,2013-09-27 15:05:00,
2013-09-27 11:10:00,58.5,58.5,30.13,East,90,0.0,0.0,100,0.00,,---,0.01,VWS V13.01,2013-09-27 15:10:00,
2013-09-27 11:16:00,59.0,58.7,30.12,East,90,0.0,0.0,99,0.00,,---,0.01,VWS V13.01,2013-09-27 15:16:00,
2013-09-27 11:21:00,60.1,59.8,30.12,East,91,3.0,3.0,99,0.00,,---,0.01,VWS V13.01,2013-09-27 15:21:00,
2013-09-27 11:26:00,60.5,59.4,30.12,ESE,121,1.0,6.0,96,0.00,,---,0.01,VWS V13.01,2013-09-27 15:26:00,
2013-09-27 11:31:00,61.1,56.9,30.12,East,86,0.0,5.0,86,0.00,,---,0.01,VWS V13.01,2013-09-27 15:31:00,
2013-09-27 11:36:00,61.9,56.0,30.11,East,88,0.0,5.0,81,0.00,,---,0.01,VWS V13.01,2013-09-27 15:36:00,
2013-09-27 11:41:00,62.7,56.5,30.11,East,94,3.0,5.0,80,0.00,,---,0.01,VWS V13.01,2013-09-27 15:41:00,
2013-09-27 11:46:00,63.0,54.6,30.11,East,92,0.0,7.0,74,0.00,,---,0.01,VWS V13.01,2013-09-27 15:46:00,
2013-09-27 11:51:00,63.2,53.7,30.11,ENE,78,0.0,7.0,71,0.00,,---,0.01,VWS V13.01,2013-09-27 15:51:00,
2013-09-27 11:56:00,63.4,53.8,30.11,East,81,0.0,8.0,71,0.00,,---,0.01,VWS V13.01,2013-09-27 15:56:00,
2013-09-27 12:01:00,63.6,53.3,30.11,ENE,69,0.0,1.0,69,0.00,,---,0.01,VWS V13.01,2013-09-27 16:01:00,
2013-09-27 12:06:00,63.9,53.5,30.11,ENE,69,0.0,5.0,69,0.00,,---,0.01,VWS V13.01,2013-09-27 16:06:00,
2013-09-27 12:11:00,64.3,53.5,30.11,NNE,33,0.0,6.0,68,0.00,,---,0.01,VWS V13.01,2013-09-27 16:11:00,
2013-09-27 12:16:00,64.5,53.7,30.11,NNE,19,0.0,6.0,68,0.00,,---,0.01,VWS V13.01,2013-09-27 16:16:00,
2013-09-27 12:21:00,65.0,54.2,30.10,NE,51,0.0,6.0,68,0.00,,---,0.01,VWS V13.01,2013-09-27 16:21:00,
2013-09-27 12:26:00,65.4,53.3,30.11,ENE,78,0.0,6.0,65,0.00,,---,0.01,VWS V13.01,2013-09-27 16:26:00,
2013-09-27 12:31:00,65.3,53.2,30.11,East,90,0.0,2.0,65,0.00,,---,0.01,VWS V13.01,2013-09-27 16:31:00,
2013-09-27 12:36:00,65.6,52.2,30.10,East,82,0.0,7.0,62,0.00,,---,0.01,VWS V13.01,2013-09-27 16:36:00,
2013-09-27 12:42:00,65.6,52.2,30.10,East,80,0.0,7.0,62,0.00,,---,0.01,VWS V13.01,2013-09-27 16:42:00,
2013-09-27 12:47:00,66.0,52.6,30.10,East,84,6.0,9.0,62,0.00,,---,0.01,VWS V13.01,2013-09-27 16:47:00,
2013-09-27 12:52:00,66.1,52.7,30.10,NE,38,1.0,9.0,62,0.00,,---,0.01,VWS V13.01,2013-09-27 16:52:00,
2013-09-27 12:57:00,66.3,53.3,30.10,NNE,30,2.0,9.0,63,0.00,,---,0.01,VWS V13.01,2013-09-27 16:57:00,
2013-09-27 13:02:00,66.5,53.1,30.09,NE,48,0.0,5.0,62,0.00,,---,0.01,VWS V13.01,2013-09-27 17:02:00,
2013-09-27 13:07:00,66.8,53.8,30.10,SE,142,1.0,8.0,63,0.00,,---,0.01,VWS V13.01,2013-09-27 17:07:00,
2013-09-27 13:12:00,67.1,53.2,30.10,NNE,26,2.0,11.0,61,0.00,,---,0.01,VWS V13.01,2013-09-27 17:12:00,
2013-09-27 13:17:00,67.3,53.4,30.10,NNE,26,0.0,11.0,61,0.00,,---,0.01,VWS V13.01,2013-09-27 17:17:00,
2013-09-27 13:22:00,67.4,53.5,30.10,North,11,0.0,11.0,61,0.00,,---,0.01,VWS V13.01,2013-09-27 17:22:00,
2013-09-27 13:26:00,67.3,53.8,30.09,NE,51,0.0,11.0,62,0.00,,---,0.01,VWS V13.01,2013-09-27 17:26:00,
2013-09-27 13:31:00,67.7,53.8,30.09,NE,51,4.0,5.0,61,0.00,,---,0.01,VWS V13.01,2013-09-27 17:31:00,
2013-09-27 13:36:00,68.0,54.1,30.09,NE,46,0.0,5.0,61,0.00,,---,0.01,VWS V13.01,2013-09-27 17:36:00,
2013-09-27 13:41:00,68.0,54.5,30.09,East,90,3.0,10.0,62,0.00,,---,0.01,VWS V13.01,2013-09-27 17:41:00,
2013-09-27 13:46:00,67.8,53.4,30.09,ENE,67,0.0,10.0,60,0.00,,---,0.01,VWS V13.01,2013-09-27 17:46:00,
2013-09-27 13:51:00,68.2,52.9,30.09,ENE,78,0.0,10.0,58,0.00,,---,0.01,VWS V13.01,2013-09-27 17:51:00,
2013-09-27 13:56:00,68.5,53.2,30.09,East,94,0.0,10.0,58,0.00,,---,0.01,VWS V13.01,2013-09-27 17:56:00,
2013-09-27 14:01:00,68.6,52.3,30.09,NE,56,0.0,5.0,56,0.00,,---,0.01,VWS V13.01,2013-09-27 18:01:00,
2013-09-27 14:07:00,68.9,53.5,30.08,NE,53,1.0,5.0,58,0.00,,---,0.01,VWS V13.01,2013-09-27 18:07:00,
2013-09-27 14:12:00,69.1,53.7,30.08,East,95,5.0,9.0,58,0.00,,---,0.01,VWS V13.01,2013-09-27 18:12:00,
2013-09-27 14:17:00,69.1,52.8,30.07,East,95,4.0,9.0,56,0.00,,---,0.01,VWS V13.01,2013-09-27 18:17:00,
2013-09-27 14:22:00,69.0,54.5,30.08,ENE,62,1.0,9.0,60,0.00,,---,0.01,VWS V13.01,2013-09-27 18:22:00,
2013-09-27 14:27:00,69.2,53.8,30.08,ESE,111,0.0,9.0,58,0.00,,---,0.01,VWS V13.01,2013-09-27 18:27:00,
2013-09-27 14:32:00,69.6,53.7,30.07,ESE,113,2.0,3.0,57,0.00,,---,0.01,VWS V13.01,2013-09-27 18:32:00,
2013-09-27 14:37:00,69.9,54.5,30.07,NE,49,0.0,5.0,58,0.00,,---,0.01,VWS V13.01,2013-09-27 18:37:00,
2013-09-27 14:42:00,70.4,55.4,30.07,ENE,70,6.0,7.0,59,0.00,,---,0.01,VWS V13.01,2013-09-27 18:42:00,
2013-09-27 14:47:00,70.1,53.7,30.07,NE,53,0.0,7.0,56,0.00,,---,0.01,VWS V13.01,2013-09-27 18:47:00,
2013-09-27 14:52:00,69.7,53.8,30.06,East,80,0.0,8.0,57,0.00,,---,0.01,VWS V13.01,2013-09-27 18:52:00,
2013-09-27 14:57:00,69.9,55.8,30.06,East,84,0.0,8.0,61,0.00,,---,0.01,VWS V13.01,2013-09-27 18:57:00,
2013-09-27 15:02:00,70.3,53.9,30.06,ENE,69,0.0,5.0,56,0.00,,---,0.01,VWS V13.01,2013-09-27 19:02:00,
2013-09-27 15:07:00,70.2,53.3,30.06,ESE,104,0.0,5.0,55,0.00,,---,0.01,VWS V13.01,2013-09-27 19:07:00,
2013-09-27 15:12:00,70.1,54.7,30.06,East,82,0.0,5.0,58,0.00,,---,0.01,VWS V13.01,2013-09-27 19:12:00,
2013-09-27 15:17:00,70.1,55.6,30.06,East,101,3.0,9.0,60,0.00,,---,0.01,VWS V13.01,2013-09-27 19:17:00,
2013-09-27 15:22:00,70.3,54.8,30.06,NE,40,0.0,9.0,58,0.00,,---,0.01,VWS V13.01,2013-09-27 19:22:00,
2013-09-27 15:27:00,70.5,54.1,30.06,NE,37,1.0,9.0,56,0.00,,---,0.01,VWS V13.01,2013-09-27 19:27:00,
2013-09-27 15:33:00,70.7,55.2,30.06,ENE,78,0.0,7.0,58,0.00,,---,0.01,VWS V13.01,2013-09-27 19:33:00,
2013-09-27 15:38:00,70.6,54.6,30.06,ESE,107,0.0,7.0,57,0.00,,---,0.01,VWS V13.01,2013-09-27 19:38:00,
2013-09-27 15:43:00,70.5,54.5,30.06,East,99,0.0,8.0,57,0.00,,---,0.01,VWS V13.01,2013-09-27 19:43:00,
2013-09-27 15:48:00,70.4,54.0,30.06,East,101,6.0,8.0,56,0.00,,---,0.01,VWS V13.01,2013-09-27 19:48:00,
2013-09-27 15:53:00,70.2,53.8,30.06,East,94,0.0,8.0,56,0.00,,---,0.01,VWS V13.01,2013-09-27 19:53:00,
2013-09-27 15:58:00,70.4,56.3,30.05,ESE,103,4.0,8.0,61,0.00,,---,0.01,VWS V13.01,2013-09-27 19:58:00,
2013-09-27 16:03:00,70.3,53.4,30.05,ESE,109,2.0,6.0,55,0.00,,---,0.01,VWS V13.01,2013-09-27 20:03:00,
2013-09-27 16:08:00,70.5,53.6,30.06,East,83,0.0,6.0,55,0.00,,---,0.01,VWS V13.01,2013-09-27 20:08:00,
2013-09-27 16:13:00,70.7,53.8,30.06,ENE,75,3.0,7.0,55,0.00,,---,0.01,VWS V13.01,2013-09-27 20:13:00,
2013-09-27 16:18:00,70.8,53.8,30.06,ENE,62,5.0,7.0,55,0.00,,---,0.01,VWS V13.01,2013-09-27 20:18:00,
2013-09-27 16:23:00,70.8,52.8,30.06,East,82,0.0,7.0,53,0.00,,---,0.01,VWS V13.01,2013-09-27 20:23:00,
2013-09-27 16:28:00,70.7,53.3,30.06,ESE,102,2.0,7.0,54,0.00,,---,0.01,VWS V13.01,2013-09-27 20:28:00,
2013-09-27 16:33:00,70.8,53.3,30.06,East,96,0.0,5.0,54,0.00,,---,0.01,VWS V13.01,2013-09-27 20:33:00,
2013-09-27 16:38:00,71.1,52.6,30.05,East,87,1.0,5.0,52,0.00,,---,0.01,VWS V13.01,2013-09-27 20:38:00,
2013-09-27 16:43:00,71.3,55.8,30.05,East,86,0.0,7.0,58,0.00,,---,0.01,VWS V13.01,2013-09-27 20:43:00,
2013-09-27 16:49:00,71.1,54.6,30.06,East,86,0.0,7.0,56,0.00,,---,0.01,VWS V13.01,2013-09-27 20:49:00,
2013-09-27 16:54:00,70.7,57.9,30.06,East,86,0.0,7.0,64,0.00,,---,0.01,VWS V13.01,2013-09-27 20:54:00,
2013-09-27 16:59:00,70.5,54.5,30.05,East,90,0.0,7.0,57,0.00,,---,0.01,VWS V13.01,2013-09-27 20:59:00,
2013-09-27 17:04:00,70.6,53.2,30.05,East,90,0.0,1.0,54,0.00,,---,0.01,VWS V13.01,2013-09-27 21:04:00,
2013-09-27 17:09:00,70.7,54.7,30.05,East,90,0.0,1.0,57,0.00,,---,0.01,VWS V13.01,2013-09-27 21:09:00,
2013-09-27 17:14:00,70.2,55.2,30.05,East,90,0.0,1.0,59,0.00,,---,0.01,VWS V13.01,2013-09-27 21:14:00,
2013-09-27 17:19:00,69.2,57.4,30.05,East,90,0.0,1.0,66,0.00,,---,0.01,VWS V13.01,2013-09-27 21:19:00,
2013-09-27 17:24:00,68.6,56.8,30.05,East,90,0.0,1.0,66,0.00,,---,0.01,VWS V13.01,2013-09-27 21:24:00,
2013-09-27 17:29:00,68.4,56.6,30.05,East,90,0.0,1.0,66,0.00,,---,0.01,VWS V13.01,2013-09-27 21:29:00,
2013-09-27 17:34:00,68.3,57.3,30.05,East,90,0.0,1.0,68,0.00,,---,0.01,VWS V13.01,2013-09-27 21:34:00,
2013-09-27 17:39:00,67.7,56.8,30.05,East,90,0.0,1.0,68,0.00,,---,0.01,VWS V13.01,2013-09-27 21:39:00,
2013-09-27 17:44:00,67.3,57.2,30.05,East,90,0.0,1.0,70,0.00,,---,0.01,VWS V13.01,2013-09-27 21:44:00,
2013-09-27 17:50:00,67.0,56.1,30.05,East,90,0.0,1.0,68,0.00,,---,0.01,VWS V13.01,2013-09-27 21:50:00,
2013-09-27 17:55:00,66.7,56.2,30.04,East,90,0.0,1.0,69,0.00,,---,0.01,VWS V13.01,2013-09-27 21:55:00,
2013-09-27 18:00:00,66.3,56.6,30.05,East,90,0.0,1.0,71,0.00,,---,0.01,VWS V13.01,2013-09-27 22:00:00,
2013-09-27 18:05:00,65.6,56.0,30.05,East,90,0.0,0.0,71,0.00,,---,0.01,VWS V13.01,2013-09-27 22:05:00,
2013-09-27 18:10:00,65.0,56.2,30.05,East,90,0.0,0.0,73,0.00,,---,0.01,VWS V13.01,2013-09-27 22:10:00,
2013-09-27 18:15:00,64.4,55.9,30.05,East,90,0.0,0.0,74,0.00,,---,0.01,VWS V13.01,2013-09-27 22:15:00,
2013-09-27 18:20:00,63.9,55.5,30.05,East,90,0.0,0.0,74,0.00,,---,0.01,VWS V13.01,2013-09-27 22:20:00,
2013-09-27 18:25:00,63.6,55.9,30.05,East,90,0.0,0.0,76,0.00,,---,0.01,VWS V13.01,2013-09-27 22:25:00,
2013-09-27 18:30:00,63.5,55.8,30.05,East,90,0.0,0.0,76,0.00,,---,0.01,VWS V13.01,2013-09-27 22:30:00,
2013-09-27 18:35:00,63.6,55.5,30.05,East,90,0.0,0.0,75,0.00,,---,0.01,VWS V13.01,2013-09-27 22:35:00,
2013-09-27 18:40:00,63.2,55.9,30.06,East,90,0.0,0.0,77,0.00,,---,0.01,VWS V13.01,2013-09-27 22:40:00,
2013-09-27 18:45:00,62.5,55.6,30.06,East,90,0.0,0.0,78,0.00,,---,0.01,VWS V13.01,2013-09-27 22:45:00,
2013-09-27 18:50:00,61.3,54.7,30.06,East,90,0.0,0.0,79,0.00,,---,0.01,VWS V13.01,2013-09-27 22:50:00,
2013-09-27 18:56:00,60.0,54.5,30.06,East,90,0.0,0.0,82,0.00,,---,0.01,VWS V13.01,2013-09-27 22:56:00,
2013-09-27 19:01:00,59.0,53.8,30.06,East,90,0.0,0.0,83,0.00,,---,0.01,VWS V13.01,2013-09-27 23:01:00,
2013-09-27 19:06:00,58.1,53.6,30.07,East,90,0.0,0.0,85,0.00,,---,0.01,VWS V13.01,2013-09-27 23:06:00,
2013-09-27 19:11:00,57.5,53.3,30.07,East,90,0.0,0.0,86,0.00,,---,0.01,VWS V13.01,2013-09-27 23:11:00,
2013-09-27 19:16:00,56.9,53.1,30.07,East,90,0.0,0.0,87,0.00,,---,0.01,VWS V13.01,2013-09-27 23:16:00,
2013-09-27 19:21:00,56.3,52.8,30.08,East,90,0.0,0.0,88,0.00,,---,0.01,VWS V13.01,2013-09-27 23:21:00,
2013-09-27 19:26:00,55.8,52.6,30.07,East,90,0.0,0.0,89,0.00,,---,0.01,VWS V13.01,2013-09-27 23:26:00,
2013-09-27 19:31:00,55.5,52.3,30.08,East,90,0.0,0.0,89,0.00,,---,0.01,VWS V13.01,2013-09-27 23:31:00,
2013-09-27 19:36:00,55.1,52.2,30.08,East,90,0.0,0.0,90,0.00,,---,0.01,VWS V13.01,2013-09-27 23:36:00,
2013-09-27 19:41:00,54.8,51.9,30.08,East,90,0.0,0.0,90,0.00,,---,0.01,VWS V13.01,2013-09-27 23:41:00,
2013-09-27 19:46:00,54.4,51.5,30.09,East,90,0.0,0.0,90,0.00,,---,0.01,VWS V13.01,2013-09-27 23:46:00,
2013-09-27 19:51:00,54.0,51.7,30.09,East,90,0.0,0.0,92,0.00,,---,0.01,VWS V13.01,2013-09-27 23:51:00,
2013-09-27 19:57:00,53.7,51.4,30.09,East,90,0.0,0.0,92,0.00,,---,0.01,VWS V13.01,2013-09-27 23:57:00,
2013-09-27 20:02:00,53.1,50.5,30.09,East,90,0.0,0.0,91,0.00,,---,0.01,VWS V13.01,2013-09-28 00:02:00,
2013-09-27 20:07:00,52.6,50.3,30.09,East,90,0.0,0.0,92,0.00,,---,0.01,VWS V13.01,2013-09-28 00:07:00,
2013-09-27 20:12:00,52.2,50.2,30.09,East,90,0.0,0.0,93,0.00,,---,0.01,VWS V13.01,2013-09-28 00:12:00,
2013-09-27 20:17:00,51.8,49.8,30.09,East,90,0.0,0.0,93,0.00,,---,0.01,VWS V13.01,2013-09-28 00:17:00,
2013-09-27 20:22:00,51.5,49.5,30.09,East,90,0.0,0.0,93,0.00,,---,0.01,VWS V13.01,2013-09-28 00:22:00,
2013-09-27 20:27:00,51.4,49.7,30.10,East,90,0.0,0.0,94,0.00,,---,0.01,VWS V13.01,2013-09-28 00:27:00,
2013-09-27 20:32:00,51.2,49.5,30.10,East,90,0.0,0.0,94,0.00,,---,0.01,VWS V13.01,2013-09-28 00:32:00,
2013-09-27 20:37:00,50.8,49.1,30.10,East,90,0.0,0.0,94,0.00,,---,0.01,VWS V13.01,2013-09-28 00:37:00,
2013-09-27 20:42:00,50.4,48.7,30.10,East,90,0.0,0.0,94,0.00,,---,0.01,VWS V13.01,2013-09-28 00:42:00,
2013-09-27 20:47:00,50.1,48.4,30.10,East,90,0.0,0.0,94,0.00,,---,0.01,VWS V13.01,2013-09-28 00:47:00,
2013-09-27 20:53:00,50.1,48.7,30.11,East,90,0.0,0.0,95,0.00,,---,0.01,VWS V13.01,2013-09-28 00:53:00,
2013-09-27 20:58:00,50.0,48.6,30.11,East,90,0.0,0.0,95,0.00,,---,0.01,VWS V13.01,2013-09-28 00:58:00,
2013-09-27 21:03:00,49.9,48.5,30.11,East,90,0.0,0.0,95,0.00,,---,0.01,VWS V13.01,2013-09-28 01:03:00,
2013-09-27 21:08:00,49.7,48.3,30.11,East,90,0.0,0.0,95,0.00,,---,0.01,VWS V13.01,2013-09-28 01:08:00,
2013-09-27 21:13:00,49.5,48.1,30.11,East,90,0.0,0.0,95,0.00,,---,0.01,VWS V13.01,2013-09-28 01:13:00,
2013-09-27 21:18:00,49.2,47.8,30.12,East,90,0.0,0.0,95,0.00,,---,0.01,VWS V13.01,2013-09-28 01:18:00,
2013-09-27 21:23:00,48.8,47.4,30.11,East,90,0.0,0.0,95,0.00,,---,0.01,VWS V13.01,2013-09-28 01:23:00,
2013-09-27 21:28:00,48.6,47.2,30.12,East,90,0.0,0.0,95,0.00,,---,0.01,VWS V13.01,2013-09-28 01:28:00,
2013-09-27 21:33:00,48.6,47.5,30.12,East,90,0.0,0.0,96,0.00,,---,0.01,VWS V13.01,2013-09-28 01:33:00,
2013-09-27 21:38:00,48.5,47.4,30.11,East,90,0.0,0.0,96,0.00,,---,0.01,VWS V13.01,2013-09-28 01:38:00,
2013-09-27 21:43:00,48.5,47.4,30.12,East,90,0.0,0.0,96,0.00,,---,0.01,VWS V13.01,2013-09-28 01:43:00,
2013-09-27 21:48:00,48.2,47.1,30.11,East,90,0.0,0.0,96,0.00,,---,0.01,VWS V13.01,2013-09-28 01:48:00,
2013-09-27 21:53:00,47.7,46.6,30.12,East,90,0.0,0.0,96,0.00,,---,0.01,VWS V13.01,2013-09-28 01:53:00,
2013-09-27 21:59:00,47.4,46.3,30.12,East,90,0.0,0.0,96,0.00,,---,0.01,VWS V13.01,2013-09-28 01:59:00,
2013-09-27 22:04:00,47.6,46.5,30.12,East,90,0.0,0.0,96,0.00,,---,0.01,VWS V13.01,2013-09-28 02:04:00,
2013-09-27 22:09:00,47.7,46.9,30.13,East,90,0.0,0.0,97,0.00,,---,0.01,VWS V13.01,2013-09-28 02:09:00,
2013-09-27 22:14:00,47.8,47.0,30.13,East,90,0.0,0.0,97,0.00,,---,0.01,VWS V13.01,2013-09-28 02:14:00,
2013-09-27 22:19:00,47.5,46.4,30.13,East,90,0.0,0.0,96,0.00,,---,0.01,VWS V13.01,2013-09-28 02:19:00,
2013-09-27 22:24:00,47.4,46.3,30.13,East,90,0.0,0.0,96,0.00,,---,0.01,VWS V13.01,2013-09-28 02:24:00,
2013-09-27 22:29:00,47.3,46.2,30.13,East,90,0.0,0.0,96,0.00,,---,0.01,VWS V13.01,2013-09-28 02:29:00,
2013-09-27 22:34:00,47.1,46.3,30.13,East,90,0.0,0.0,97,0.00,,---,0.01,VWS V13.01,2013-09-28 02:34:00,
2013-09-27 22:39:00,47.0,46.2,30.14,East,90,0.0,0.0,97,0.00,,---,0.01,VWS V13.01,2013-09-28 02:39:00,
2013-09-27 22:44:00,46.9,46.1,30.14,East,90,0.0,0.0,97,0.00,,---,0.01,VWS V13.01,2013-09-28 02:44:00,
2013-09-27 22:49:00,46.8,46.0,30.14,East,90,0.0,0.0,97,0.00,,---,0.01,VWS V13.01,2013-09-28 02:49:00,
2013-09-27 22:55:00,46.6,45.8,30.14,East,90,0.0,0.0,97,0.00,,---,0.01,VWS V13.01,2013-09-28 02:55:00,
2013-09-27 23:00:00,46.5,45.7,30.14,East,90,0.0,0.0,97,0.00,,---,0.01,VWS V13.01,2013-09-28 03:00:00,
2013-09-27 23:05:00,46.4,45.6,30.14,East,90,0.0,0.0,97,0.00,,---,0.01,VWS V13.01,2013-09-28 03:05:00,
2013-09-27 23:10:00,46.0,45.2,30.13,East,90,0.0,0.0,97,0.00,,---,0.01,VWS V13.01,2013-09-28 03:10:00,
2013-09-27 23:15:00,45.8,44.7,30.14,East,90,0.0,0.0,96,0.00,,---,0.01,VWS V13.01,2013-09-28 03:15:00,
2013-09-27 23:20:00,45.7,44.9,30.14,East,90,0.0,0.0,97,0.00,,---,0.01,VWS V13.01,2013-09-28 03:20:00,
2013-09-27 23:25:00,45.6,44.8,30.13,East,90,0.0,0.0,97,0.00,,---,0.01,VWS V13.01,2013-09-28 03:25:00,
2013-09-27 23:30:00,45.6,44.8,30.13,East,90,0.0,0.0,97,0.00,,---,0.01,VWS V13.01,2013-09-28 03:30:00,
2013-09-27 23:35:00,45.6,44.8,30.14,East,90,0.0,0.0,97,0.00,,---,0.01,VWS V13.01,2013-09-28 03:35:00,
2013-09-27 23:41:00,45.6,44.8,30.14,East,90,0.0,0.0,97,0.00,,---,0.01,VWS V13.01,2013-09-28 03:41:00,
2013-09-27 23:46:00,45.2,44.4,30.14,East,90,0.0,0.0,97,0.00,,---,0.01,VWS V13.01,2013-09-28 03:46:00,
2013-09-27 23:51:00,45.2,44.4,30.14,East,90,0.0,0.0,97,0.00,,---,0.01,VWS V13.01,2013-09-28 03:51:00,
2013-09-27 23:56:00,45.3,44.5,30.14,East,90,0.0,0.0,97,0.00,,---,0.01,VWS V13.01,2013-09-28 03:56:00,